.
WxDataArchive / Data Records for 2008-01-16
2008-01-15 January 2008 2008-01-17

Data Records for Wednesday, 16 January 2008

Time	Temp	Chill	HIndex	Humid	Dewpt	 Wind 	HiWind	WindDir	Rain 	Barom 
-----	----	-----	------	-----	-----	------	------	-------	-----	----- 
00:00	14.0	14.0	14.0	88	11.1	0	0	---	0.00	30.220 
00:05	13.8	13.8	13.8	87	10.7	0	0	---	0.00	30.218 
00:10	13.5	13.5	13.5	87	10.4	0	0	---	0.00	30.218 
00:15	13.5	13.5	13.5	87	10.4	0	0	---	0.00	30.222 
00:20	13.5	13.5	13.5	88	10.6	0	0	---	0.00	30.221 
00:25	13.3	13.3	13.3	88	10.4	0	0	---	0.00	30.228 
00:30	13.3	13.3	13.3	88	10.4	0	0	---	0.00	30.229 
00:35	13.1	13.1	13.1	88	10.2	0	0	---	0.00	30.231 
00:40	13.1	13.1	13.1	88	10.2	0	0	---	0.00	30.230 
00:45	13.1	13.1	13.1	88	10.2	0	0	---	0.00	30.226 
00:50	13.1	13.1	13.1	88	10.2	0	0	---	0.00	30.227 
00:55	12.9	12.9	12.9	88	10.0	0	0	---	0.00	30.225 
01:00	12.8	12.8	12.8	88	9.9	0	0	---	0.00	30.225 
01:05	12.8	12.8	12.8	88	9.9	0	0	---	0.00	30.224 
01:10	12.6	12.6	12.6	87	9.5	0	0	---	0.00	30.222 
01:15	12.4	12.4	12.4	87	9.3	0	0	---	0.00	30.220 
01:20	12.3	12.3	12.3	87	9.2	0	0	---	0.00	30.220 
01:25	12.3	12.3	12.3	87	9.2	0	0	---	0.00	30.218 
01:30	12.1	12.1	12.1	87	9.0	0	0	---	0.00	30.219 
01:35	12.1	12.1	12.1	88	9.2	0	0	---	0.00	30.226 
01:40	12.3	12.3	12.3	88	9.4	0	0	---	0.00	30.231 
01:45	12.3	12.3	12.3	88	9.4	0	0	---	0.00	30.230 
01:50	12.3	12.3	12.3	88	9.4	0	0	---	0.00	30.230 
01:55	12.4	12.4	12.4	88	9.5	0	0	---	0.00	30.230 
02:00	12.4	12.4	12.4	88	9.5	0	0	---	0.00	30.229 
02:05	12.3	12.3	12.3	88	9.4	0	0	---	0.00	30.226 
02:10	12.3	12.3	12.3	87	9.2	0	0	---	0.00	30.224 
02:15	12.1	12.1	12.1	87	9.0	0	0	---	0.00	30.222 
02:20	12.3	12.3	12.3	88	9.4	0	0	---	0.00	30.223 
02:25	12.4	12.4	12.4	88	9.5	0	0	---	0.00	30.224 
02:30	12.4	12.4	12.4	88	9.5	0	0	---	0.00	30.223 
02:35	12.4	12.4	12.4	88	9.5	0	0	---	0.00	30.225 
02:40	12.3	12.3	12.3	88	9.4	0	0	---	0.00	30.227 
02:45	12.3	12.3	12.3	88	9.4	0	0	---	0.00	30.232 
02:50	12.1	12.1	12.1	87	9.0	0	0	---	0.00	30.235 
02:55	12.1	12.1	12.1	87	9.0	0	0	---	0.00	30.237 
03:00	11.9	11.9	11.9	87	8.8	0	0	---	0.00	30.242 
03:05	12.1	12.1	12.1	88	9.2	0	0	---	0.00	30.240 
03:10	12.1	12.1	12.1	88	9.2	0	0	---	0.00	30.239 
03:15	12.1	12.1	12.1	87	9.0	0	0	---	0.00	30.238 
03:20	11.9	11.9	11.9	87	8.8	0	0	---	0.00	30.239 
03:25	11.9	11.9	11.9	87	8.8	0	0	---	0.00	30.239 
03:30	11.9	11.9	11.9	88	9.0	0	0	---	0.00	30.239 
03:35	12.3	12.3	12.3	88	9.4	0	0	---	0.00	30.242 
03:40	12.6	12.6	12.6	88	9.7	0	0	---	0.00	30.243 
03:45	12.8	12.8	12.8	88	9.9	0	0	---	0.00	30.241 
03:50	12.8	12.8	12.8	88	9.9	0	0	---	0.00	30.240 
03:55	12.9	12.9	12.9	88	10.0	0	0	---	0.00	30.239 
04:00	12.9	12.9	12.9	88	10.0	0	0	---	0.00	30.241 
04:05	12.9	12.9	12.9	88	10.0	0	0	---	0.00	30.239 
04:10	12.8	12.8	12.8	88	9.9	0	0	---	0.00	30.239 
04:15	12.6	12.6	12.6	88	9.7	0	0	---	0.00	30.240 
04:20	12.4	12.4	12.4	87	9.3	0	0	---	0.00	30.240 
04:25	12.3	12.3	12.3	87	9.2	0	0	---	0.00	30.240 
04:30	12.1	12.1	12.1	87	9.0	0	0	---	0.00	30.240 
04:35	12.1	12.1	12.1	87	9.0	0	0	---	0.00	30.240 
04:40	11.9	11.9	11.9	87	8.8	0	0	---	0.00	30.242 
04:45	11.7	11.7	11.7	87	8.6	0	0	---	0.00	30.240 
04:50	11.6	11.6	11.6	87	8.5	0	0	---	0.00	30.239 
04:55	11.4	11.4	11.4	87	8.3	0	0	---	0.00	30.234 
05:00	11.6	11.6	11.6	87	8.5	0	0	---	0.00	30.234 
05:05	11.7	11.7	11.7	87	8.6	0	0	---	0.00	30.233 
05:10	11.9	11.9	11.9	88	9.0	0	0	---	0.00	30.232 
05:15	12.4	12.4	12.4	88	9.5	0	0	---	0.00	30.236 
05:20	12.6	12.6	12.6	88	9.7	0	0	---	0.00	30.240 
05:25	12.6	12.6	12.6	88	9.7	0	0	---	0.00	30.241 
05:30	12.6	12.6	12.6	88	9.7	0	0	---	0.00	30.242 
05:35	12.4	12.4	12.4	87	9.3	0	0	---	0.00	30.248 
05:40	12.3	12.3	12.3	87	9.2	0	0	---	0.00	30.248 
05:45	12.1	12.1	12.1	87	9.0	0	0	---	0.00	30.253 
05:50	11.9	11.9	11.9	87	8.8	0	0	---	0.00	30.257 
05:55	11.9	11.9	11.9	87	8.8	0	0	---	0.00	30.261 
06:00	11.7	11.7	11.7	87	8.6	0	0	---	0.00	30.263 
06:05	11.6	11.6	11.6	87	8.5	0	0	---	0.00	30.262 
06:10	11.4	11.4	11.4	86	8.0	0	0	---	0.00	30.263 
06:15	11.4	11.4	11.4	87	8.3	0	0	---	0.00	30.261 
06:20	11.6	11.6	11.6	87	8.5	0	0	---	0.00	30.260 
06:25	11.7	11.7	11.7	87	8.6	0	0	---	0.00	30.259 
06:30	11.7	11.7	11.7	87	8.6	0	0	---	0.00	30.253 
06:35	11.6	11.6	11.6	87	8.5	0	0	---	0.00	30.252 
06:40	11.6	11.6	11.6	87	8.5	0	0	---	0.00	30.248 
06:45	11.6	11.6	11.6	87	8.5	0	0	---	0.00	30.249 
06:50	11.6	11.6	11.6	87	8.5	0	0	---	0.00	30.256 
06:55	11.6	11.6	11.6	87	8.5	0	0	---	0.00	30.258 
07:00	11.4	11.4	11.4	86	8.0	0	0	---	0.00	30.257 
07:05	11.4	11.4	11.4	87	8.3	0	1	225	0.00	30.258 
07:10	11.6	11.6	11.6	87	8.5	0	0	---	0.00	30.263 
07:15	11.7	11.7	11.7	87	8.6	0	0	---	0.00	30.265 
07:20	11.7	11.7	11.7	87	8.6	0	0	---	0.00	30.261 
07:25	11.9	11.9	11.9	87	8.8	0	0	---	0.00	30.253 
07:30	11.9	11.9	11.9	87	8.8	0	0	---	0.00	30.253 
07:35	11.9	11.9	11.9	87	8.8	0	0	---	0.00	30.249 
07:40	12.1	12.1	12.1	87	9.0	0	0	---	0.00	30.249 
07:45	12.4	12.4	12.4	88	9.5	0	0	---	0.00	30.245 
07:50	12.6	12.6	12.6	88	9.7	0	0	---	0.00	30.244 
07:55	12.6	12.6	12.6	87	9.5	0	0	---	0.00	30.244 
08:00	12.4	12.4	12.4	87	9.3	0	0	---	0.00	30.240 
08:05	12.4	12.4	12.4	87	9.3	0	0	---	0.00	30.252 
08:10	12.3	12.3	12.3	87	9.2	0	0	---	0.00	30.254 
08:15	12.4	12.4	12.4	87	9.3	0	1	225	0.00	30.253 
08:20	12.6	12.6	12.6	87	9.5	0	0	---	0.00	30.251 
08:25	12.6	12.6	12.6	87	9.5	0	0	---	0.00	30.259 
08:30	12.4	12.4	12.4	87	9.3	0	0	---	0.00	30.262 
08:35	12.4	12.4	12.4	87	9.3	0	0	---	0.00	30.267 
08:40	12.6	12.6	12.6	87	9.5	0	0	---	0.00	30.268 
08:45	12.6	12.6	12.6	87	9.5	0	0	---	0.00	30.267 
08:50	12.8	12.8	12.8	87	9.7	0	0	---	0.00	30.266 
08:55	12.9	12.9	12.9	87	9.8	0	1	225	0.00	30.265 
09:00	13.3	13.3	13.3	87	10.2	0	1	225	0.00	30.267 
09:05	13.8	13.8	13.8	88	10.9	0	1	225	0.00	30.265 
09:10	14.3	14.3	14.3	88	11.4	0	1	225	0.00	30.269 
09:15	14.6	14.6	14.6	88	11.7	0	0	---	0.00	30.268 
09:20	14.9	14.9	14.9	88	12.0	0	1	225	0.00	30.269 
09:25	15.4	15.4	15.4	88	12.5	0	1	225	0.00	30.266 
09:30	16.1	16.1	16.1	88	13.2	1	2	202	0.00	30.265 
09:35	16.4	16.4	16.4	88	13.5	0	2	112	0.00	30.265 
09:40	16.7	16.7	16.7	88	13.8	0	2	112	0.00	30.263 
09:45	17.0	17.0	17.0	88	14.1	0	1	112	0.00	30.264 
09:50	17.2	17.2	17.2	88	14.3	0	1	112	0.00	30.266 
09:55	17.5	17.5	17.5	88	14.6	0	2	112	0.00	30.263 
10:00	17.8	17.8	17.8	88	14.9	0	1	112	0.00	30.266 
10:05	18.1	18.1	18.1	88	15.2	0	2	112	0.00	30.267 
10:10	18.6	18.6	18.6	88	15.6	0	2	112	0.00	30.269 
10:15	18.9	18.9	18.9	88	15.9	1	3	112	0.00	30.263 
10:20	19.2	19.2	19.2	88	16.2	1	3	112	0.00	30.260 
10:25	19.7	19.7	19.7	88	16.7	0	2	112	0.00	30.260 
10:30	20.3	20.3	20.3	88	17.3	0	2	112	0.00	30.259 
10:35	20.6	20.6	20.6	87	17.4	0	2	112	0.00	30.263 
10:40	20.8	20.8	20.8	87	17.6	1	2	112	0.00	30.270 
10:45	21.1	21.1	21.1	87	17.8	1	2	112	0.00	30.270 
10:50	21.3	21.3	21.3	86	17.8	1	3	112	0.00	30.276 
10:55	21.6	21.6	21.6	86	18.1	1	3	112	0.00	30.286 
11:00	22.2	22.2	22.2	86	18.7	1	4	112	0.00	30.287 
11:05	23.0	23.0	23.0	85	19.2	1	3	112	0.00	30.287 
11:10	23.5	23.5	23.5	83	19.1	1	4	135	0.00	30.282 
11:15	23.9	23.9	23.9	82	19.2	1	3	112	0.00	30.274 
11:20	24.4	24.4	24.4	80	19.1	1	3	112	0.00	30.264 
11:25	24.8	24.8	24.8	78	18.9	2	6	135	0.00	30.266 
11:30	25.1	25.1	25.1	78	19.2	1	3	90	0.00	30.264 
11:35	25.4	25.4	25.4	77	19.2	1	4	112	0.00	30.263 
11:40	25.6	25.6	25.6	76	19.1	2	4	112	0.00	30.261 
11:45	25.7	25.7	25.7	75	18.9	2	4	90	0.00	30.257 
11:50	26.0	26.0	26.0	75	19.2	1	4	112	0.00	30.257 
11:55	26.7	26.7	26.7	75	19.9	1	6	112	0.00	30.256 
12:00	27.2	27.2	27.2	73	19.7	2	6	112	0.00	30.247 
12:05	27.5	27.5	27.5	72	19.7	2	5	135	0.00	30.242 
12:10	27.5	27.5	27.5	72	19.7	2	7	135	0.00	30.241 
12:15	27.5	27.5	27.5	73	20.0	1	3	135	0.00	30.231 
12:20	27.6	27.6	27.6	73	20.1	2	5	112	0.00	30.225 
12:25	27.8	27.8	27.8	73	20.3	2	6	112	0.00	30.227 
12:30	28.4	28.4	28.4	74	21.2	1	6	112	0.00	30.226 
12:35	29.0	29.0	29.0	73	21.4	2	6	112	0.00	30.220 
12:40	29.3	29.3	29.3	71	21.1	3	7	112	0.00	30.212 
12:45	29.5	29.5	29.5	71	21.3	2	7	112	0.00	30.207 
12:50	30.0	30.0	30.0	71	21.8	1	4	112	0.00	30.207 
12:55	30.3	30.3	30.3	68	21.0	2	6	112	0.00	30.208 
13:00	30.4	30.4	30.4	68	21.1	3	7	90	0.00	30.203 
13:05	30.6	30.6	30.6	66	20.6	3	7	112	0.00	30.203 
13:10	30.7	30.7	30.7	66	20.7	2	10	90	0.00	30.199 
13:15	31.0	31.0	31.0	66	21.0	2	4	90	0.00	30.192 
13:20	31.2	31.2	31.2	64	20.5	2	10	90	0.00	30.192 
13:25	31.5	31.5	31.5	63	20.4	3	7	90	0.00	30.187 
13:30	31.6	31.6	31.6	64	20.8	3	7	112	0.00	30.182 
13:35	31.8	31.8	31.8	62	20.3	3	8	90	0.00	30.179 
13:40	31.9	31.9	31.9	64	21.1	2	6	45	0.00	30.177 
13:45	31.9	31.9	31.9	62	20.4	2	5	90	0.00	30.180 
13:50	31.9	31.9	31.9	63	20.8	2	5	112	0.00	30.175 
13:55	32.1	32.1	32.1	62	20.6	2	6	90	0.00	30.177 
14:00	32.4	32.4	32.4	62	20.9	2	4	90	0.00	30.180 
14:05	32.4	32.4	32.4	62	20.9	2	5	90	0.00	30.181 
14:10	32.4	32.4	32.4	60	20.1	3	9	90	0.00	30.184 
14:15	32.5	32.5	32.5	61	20.6	2	7	90	0.00	30.181 
14:20	32.8	32.8	32.8	62	21.2	2	7	112	0.00	30.175 
14:25	32.7	32.7	32.7	60	20.4	2	7	45	0.00	30.181 
14:30	32.5	32.5	32.5	60	20.2	2	6	112	0.00	30.179 
14:35	32.5	32.5	32.5	62	20.9	2	6	112	0.00	30.175 
14:40	32.5	32.5	32.5	61	20.6	2	5	112	0.00	30.176 
14:45	32.7	32.7	32.7	62	21.1	2	6	90	0.00	30.176 
14:50	32.9	32.9	32.9	62	21.3	2	5	135	0.00	30.174 
14:55	33.4	33.4	33.4	60	21.0	2	5	90	0.00	30.172 
15:00	33.5	33.5	33.5	59	20.7	3	10	90	0.00	30.171 
15:05	33.4	33.4	33.4	59	20.6	2	5	90	0.00	30.171 
15:10	33.4	33.4	33.4	59	20.6	2	7	112	0.00	30.171 
15:15	33.5	33.5	33.5	59	20.7	2	4	135	0.00	30.172 
15:20	33.5	33.5	33.5	59	20.7	2	6	112	0.00	30.173 
15:25	33.7	33.7	33.7	58	20.5	3	7	90	0.00	30.172 
15:30	33.7	33.7	33.7	59	20.9	1	5	135	0.00	30.171 
15:35	33.8	33.8	33.8	59	21.0	1	4	135	0.00	30.172 
15:40	34.0	34.0	34.0	58	20.8	2	4	112	0.00	30.172 
15:45	34.0	34.0	34.0	59	21.2	1	5	112	0.00	30.173 
15:50	33.8	33.8	33.8	60	21.4	1	3	112	0.00	30.171 
15:55	33.8	33.8	33.8	59	21.0	1	4	112	0.00	30.172 
16:00	33.7	33.7	33.7	59	20.9	2	5	112	0.00	30.173 
16:05	33.8	33.8	33.8	60	21.4	1	3	135	0.00	30.171 
16:10	33.8	33.8	33.8	59	21.0	2	6	112	0.00	30.163 
16:15	33.8	33.8	33.8	59	21.0	1	4	135	0.00	30.168 
16:20	33.7	33.7	33.7	60	21.3	1	3	112	0.00	30.167 
16:25	33.5	33.5	33.5	60	21.1	1	3	135	0.00	30.169 
16:30	33.4	33.4	33.4	61	21.4	1	3	135	0.00	30.170 
16:35	33.2	33.2	33.2	61	21.2	1	4	135	0.00	30.175 
16:40	33.2	33.2	33.2	61	21.2	1	3	180	0.00	30.177 
16:45	33.1	33.1	33.1	62	21.5	1	4	135	0.00	30.176 
16:50	33.1	33.1	33.1	62	21.5	1	3	112	0.00	30.175 
16:55	32.9	32.9	32.9	63	21.7	0	2	158	0.00	30.170 
17:00	32.8	32.8	32.8	63	21.6	0	2	158	0.00	30.173 
17:05	32.8	32.8	32.8	64	22.0	0	2	158	0.00	30.173 
17:10	32.7	32.7	32.7	65	22.3	0	2	158	0.00	30.173 
17:15	32.5	32.5	32.5	65	22.1	0	2	158	0.00	30.173 
17:20	32.4	32.4	32.4	66	22.3	0	2	158	0.00	30.174 
17:25	32.2	32.2	32.2	66	22.1	0	2	135	0.00	30.175 
17:30	32.1	32.1	32.1	66	22.0	0	2	135	0.00	30.178 
17:35	32.1	32.1	32.1	66	22.0	0	2	135	0.00	30.180 
17:40	31.9	31.9	31.9	67	22.2	0	1	135	0.00	30.181 
17:45	31.8	31.8	31.8	67	22.1	0	2	135	0.00	30.179 
17:50	31.6	31.6	31.6	68	22.3	0	1	135	0.00	30.181 
17:55	31.3	31.3	31.3	69	22.3	0	1	135	0.00	30.176 
18:00	31.0	31.0	31.0	69	22.0	0	1	135	0.00	30.176 
18:05	30.9	30.9	30.9	70	22.3	0	2	135	0.00	30.176 
18:10	30.7	30.7	30.7	71	22.4	0	1	135	0.00	30.177 
18:15	30.6	30.6	30.6	72	22.7	0	1	135	0.00	30.179 
18:20	30.3	30.3	30.3	73	22.7	0	1	135	0.00	30.188 
18:25	30.1	30.1	30.1	73	22.5	0	0	---	0.00	30.191 
18:30	30.1	30.1	30.1	74	22.8	0	1	135	0.00	30.187 
18:35	30.0	30.0	30.0	74	22.7	0	1	135	0.00	30.187 
18:40	29.8	29.8	29.8	74	22.5	0	0	---	0.00	30.189 
18:45	29.7	29.7	29.7	74	22.4	0	0	---	0.00	30.190 
18:50	29.5	29.5	29.5	74	22.3	0	0	---	0.00	30.189 
18:55	29.3	29.3	29.3	74	22.1	0	0	---	0.00	30.190 
19:00	29.1	29.1	29.1	75	22.2	0	0	---	0.00	30.190 
19:05	29.0	29.0	29.0	76	22.4	0	0	---	0.00	30.191 
19:10	29.0	29.0	29.0	77	22.7	0	0	---	0.00	30.191 
19:15	29.0	29.0	29.0	77	22.7	0	0	---	0.00	30.188 
19:20	28.8	28.8	28.8	78	22.8	0	0	---	0.00	30.186 
19:25	28.8	28.8	28.8	78	22.8	0	1	135	0.00	30.182 
19:30	28.8	28.8	28.8	79	23.1	0	1	135	0.00	30.178 
19:35	28.8	28.8	28.8	79	23.1	0	1	135	0.00	30.174 
19:40	29.0	29.0	29.0	79	23.3	0	1	135	0.00	30.173 
19:45	29.1	29.1	29.1	79	23.4	0	1	135	0.00	30.172 
19:50	29.1	29.1	29.1	79	23.4	0	1	135	0.00	30.171 
19:55	29.1	29.1	29.1	79	23.4	0	1	135	0.00	30.174 
20:00	29.1	29.1	29.1	79	23.4	0	0	---	0.00	30.173 
20:05	29.1	29.1	29.1	80	23.7	0	1	135	0.00	30.170 
20:10	29.1	29.1	29.1	80	23.7	0	2	135	0.00	30.170 
20:15	29.1	29.1	29.1	80	23.7	0	2	135	0.00	30.169 
20:20	29.3	29.3	29.3	80	23.9	0	2	135	0.00	30.170 
20:25	29.3	29.3	29.3	80	23.9	0	2	135	0.00	30.169 
20:30	29.3	29.3	29.3	79	23.6	0	2	135	0.00	30.169 
20:35	29.3	29.3	29.3	79	23.6	0	2	135	0.00	30.169 
20:40	29.3	29.3	29.3	80	23.9	0	1	135	0.00	30.169 
20:45	29.3	29.3	29.3	80	23.9	0	1	135	0.00	30.165 
20:50	29.1	29.1	29.1	80	23.7	0	1	135	0.00	30.167 
20:55	29.1	29.1	29.1	80	23.7	0	1	135	0.00	30.166 
21:00	29.1	29.1	29.1	81	24.0	0	1	135	0.00	30.161 
21:05	29.1	29.1	29.1	81	24.0	0	1	135	0.00	30.157 
21:10	29.0	29.0	29.0	81	23.9	0	1	135	0.00	30.157 
21:15	29.0	29.0	29.0	81	23.9	0	1	135	0.00	30.156 
21:20	29.0	29.0	29.0	81	23.9	0	2	135	0.00	30.156 
21:25	29.0	29.0	29.0	82	24.2	0	1	135	0.00	30.156 
21:30	29.0	29.0	29.0	82	24.2	0	2	135	0.00	30.152 
21:35	29.0	29.0	29.0	82	24.2	1	3	112	0.00	30.151 
21:40	29.0	29.0	29.0	81	23.9	0	2	112	0.00	30.150 
21:45	29.0	29.0	29.0	82	24.2	1	3	135	0.00	30.147 
21:50	29.0	29.0	29.0	81	23.9	1	3	135	0.00	30.144 
21:55	29.0	29.0	29.0	81	23.9	0	2	90	0.00	30.145 
22:00	29.0	29.0	29.0	81	23.9	0	2	135	0.00	30.142 
22:05	29.0	29.0	29.0	81	23.9	0	2	135	0.00	30.138 
22:10	29.0	29.0	29.0	81	23.9	0	2	135	0.00	30.136 
22:15	29.0	29.0	29.0	80	23.6	0	2	135	0.00	30.135 
22:20	29.1	29.1	29.1	80	23.7	0	2	135	0.00	30.136 
22:25	29.1	29.1	29.1	80	23.7	0	2	135	0.00	30.134 
22:30	29.1	29.1	29.1	79	23.4	0	2	135	0.00	30.133 
22:35	29.1	29.1	29.1	79	23.4	0	1	135	0.00	30.131 
22:40	29.1	29.1	29.1	79	23.4	0	2	135	0.00	30.130 
22:45	29.1	29.1	29.1	78	23.1	0	2	135	0.00	30.129 
22:50	29.1	29.1	29.1	78	23.1	0	1	135	0.00	30.126 
22:55	29.3	29.3	29.3	77	23.0	0	3	135	0.00	30.126 
23:00	29.3	29.3	29.3	77	23.0	0	2	135	0.00	30.125 
23:05	29.3	29.3	29.3	77	23.0	0	1	135	0.00	30.119 
23:10	29.3	29.3	29.3	77	23.0	0	2	135	0.00	30.117 
23:15	29.4	29.4	29.4	77	23.1	0	1	135	0.00	30.116 
23:20	29.4	29.4	29.4	77	23.1	0	1	135	0.00	30.115 
23:25	29.3	29.3	29.3	77	23.0	0	1	135	0.00	30.115 
23:30	29.3	29.3	29.3	77	23.0	0	1	135	0.00	30.115 
23:35	29.3	29.3	29.3	77	23.0	0	1	135	0.00	30.114 
23:40	29.3	29.3	29.3	77	23.0	0	1	135	0.00	30.114 
23:45	29.3	29.3	29.3	78	23.3	0	1	135	0.00	30.112 
23:50	29.1	29.1	29.1	78	23.1	0	1	135	0.00	30.111 
23:55	29.0	29.0	29.0	78	23.0	0	1	135	0.00	30.112 

CoCoRaHS
IN-AL-39
A2 Web Hosting
Creative Commons License
GoDaddy
Look for:

loaded 2017-12-12 15:10:27 • last modified 2010-11-18 10:43:29
Privacy PolicyDisclaimer
• wx.awcolley.com is powered by PmWiki v.2002016 •
• all content (unless otherwise noted) © 2017 A W Colley